This is the latest recevied weather packets stored in our database for station/object KA8DUX-2. If no packets are shown the sender has not sent any weather packets the latest 1 day(s).
| Time | Temp. | Humidity | Pressure | Rain* | Wind** | Luminosity | Snow |
|---|---|---|---|---|---|---|---|
| 1777993320 | 11.11° C | 56% | 1006.8 hPa | 0 mm | 0.45 m/s, 132° | 332 W/m² | - |
| 1777993020 | 10.56° C | 56% | 1006.7 hPa | 0 mm | 0.89 m/s, 93° | 264 W/m² | - |
| 1777992719 | 10.56° C | 60% | 1006.6 hPa | 0 mm | 0 m/s | 212 W/m² | - |
| 1777992416 | 10.56° C | 62% | 1006.5 hPa | 0 mm | 0.45 m/s, 76° | 184 W/m² | - |
| 1777992114 | 10.56° C | 62% | 1006.4 hPa | 0 mm | 0.45 m/s, 139° | 243 W/m² | - |
| 1777991811 | 10.56° C | 64% | 1006.4 hPa | 0 mm | 0.89 m/s, 325° | 227 W/m² | - |
| 1777991508 | 10.56° C | 64% | 1006.2 hPa | 0 mm | 0.45 m/s, 264° | 199 W/m² | - |
| 1777991205 | 10° C | 66% | 1006.3 hPa | 0 mm | 0.45 m/s, 161° | 222 W/m² | - |
| 1777990903 | 10° C | 68% | 1006.4 hPa | 0 mm | 0.45 m/s, 2° | 147 W/m² | - |
| 1777990601 | 10° C | 67% | 1006 hPa | 0 mm | 0.45 m/s, 177° | 144 W/m² | - |
| 1777990297 | 10° C | 67% | 1006.2 hPa | 0 mm | 1.34 m/s, 292° | 181 W/m² | - |
| 1777989993 | 10° C | 68% | 1006.4 hPa | 0 mm | 0.45 m/s, 281° | 176 W/m² | - |
| 1777989691 | 10° C | 68% | 1005.8 hPa | 0 mm | 0.45 m/s, 315° | 218 W/m² | - |
| 1777989386 | 10° C | 69% | 1006 hPa | 0 mm | 0.45 m/s, 332° | 265 W/m² | - |
| 1777989083 | 10° C | 70% | 1005.7 hPa | 0 mm | 0 m/s | 204 W/m² | - |
| 1777988779 | 10° C | 70% | 1005.6 hPa | 0 mm | 2.24 m/s, 314° | 171 W/m² | - |
| 1777988477 | 10° C | 72% | 1005.7 hPa | 0 mm | 0.89 m/s, 140° | 229 W/m² | - |
| 1777988173 | 10° C | 72% | 1005.8 hPa | 0 mm | 0.45 m/s, 134° | 175 W/m² | - |
| 1777987869 | 10° C | 74% | 1005.8 hPa | 0 mm | 0 m/s | 169 W/m² | - |
| 1777987566 | 10° C | 74% | 1006.2 hPa | 0 mm | 0 m/s | 147 W/m² | - |
| 1777987264 | 9.44° C | 75% | 1005.9 hPa | 0 mm | 1.34 m/s, 45° | 145 W/m² | - |
| 1777986960 | 9.44° C | 74% | 1005.8 hPa | 0 mm | 1.34 m/s, 298° | 130 W/m² | - |
| 1777986658 | 9.44° C | 77% | 1005.4 hPa | 0 mm | 0.45 m/s, 148° | 133 W/m² | - |
| 1777986355 | 8.89° C | 76% | 1005.3 hPa | 0 mm | 1.34 m/s, 304° | 85 W/m² | - |
| 1777986054 | 8.89° C | 77% | 1005.4 hPa | 0 mm | 0.45 m/s, 162° | 67 W/m² | - |
* Rain latest hour (hover to see other rain measurements)
** Current wind speed in m/s (hover to see current wind gust speed)